Lifter — V2DD4 — position and weather

sailwx.info

Track history (hours):
 
Tides and Currents Weather Stations Pressure Air Temp Water Temp Dewpoint Dewpoint Depression Visibility Wind Speed Wind Dir Waves Ship Positions

Lifter

Last reported at 2015-Jan-30 10:33 UTC. Time now 2015-Jan-30 20:03 UTC.
Position N 50°27' W 000°25'.

Length 118 m; draft 7.2 m.

Type: Ship. MMSI: 305175000.

Date/timePositionNaut miles runAvg speedWind from/ knotsBaromVisibWave heightAir tempDewpointWater temp
2015-Jan-30 10:33N 50°27' W 000°25'1411.2
2015-Jan-30 09:19N 50°31' W 000°04'810.2
2015-Jan-30 08:31N 50°33' E 000°09'9 9.3
2015-Jan-30 07:34N 50°36' E 000°22'9 9.0
2015-Jan-30 06:34N 50°39' E 000°35'10 9.6
2015-Jan-30 05:34N 50°45' E 000°48'1110.6
2015-Jan-30 04:33N 50°51' E 001°01'1212.1
2015-Jan-30 03:34N 50°59' E 001°16'1313.1
2015-Jan-30 02:33N 51°07' E 001°32'1312.6
2015-Jan-30 01:33N 51°15' E 001°47'1211.7
2015-Jan-30 00:34N 51°25' E 001°59'1110.5
2015-Jan-29 23:33N 51°21' E 002°15'10 9.8
2015-Jan-29 22:32N 51°23' E 002°31'9 9.4
2015-Jan-29 21:34N 51°22' E 002°45'9 9.3
2015-Jan-29 20:33N 51°24' E 003°00'1110.4
2015-Jan-29 19:29N 51°25' E 003°18'910.3
2015-Jan-29 18:34N 51°26' E 003°33'7 6.9
2015-Jan-29 17:33N 51°23' E 003°43'9 9.2
2015-Jan-29 16:33N 51°25' E 003°58'9 8.7
2015-Jan-29 15:34N 51°24' E 004°11'9 9.1
2015-Jan-29 14:34N 51°17' E 004°20'0 0.0
2015-Jan-29 13:34N 51°17' E 004°20'3 3.1
2015-Jan-29 12:33N 51°15' E 004°24'0 0.0
2015-Jan-29 11:33N 51°15' E 004°24'0 0.0
2015-Jan-29 10:33N 51°15' E 004°24'0 0.0
2015-Jan-29 09:33N 51°15' E 004°24'0 0.0
2015-Jan-29 08:33N 51°15' E 004°24'0 0.0
2015-Jan-29 07:33N 51°15' E 004°24'0 0.0
2015-Jan-29 06:33N 51°15' E 004°24'0 0.0
2015-Jan-29 05:33N 51°15' E 004°24'0 0.0
2015-Jan-29 04:33N 51°15' E 004°24'0 0.0
2015-Jan-29 03:33N 51°15' E 004°24'0 0.0
2015-Jan-29 02:33N 51°15' E 004°24'0 0.0
2015-Jan-29 01:33N 51°15' E 004°24'0 0.0
2015-Jan-29 00:33N 51°15' E 004°24'0 0.0
2015-Jan-28 23:33N 51°15' E 004°24'0 0.0
2015-Jan-28 22:33N 51°15' E 004°24'0 0.0
2015-Jan-28 21:33N 51°15' E 004°24'0 0.0
2015-Jan-28 20:33N 51°15' E 004°24'0 0.0
2015-Jan-28 19:33N 51°15' E 004°24'0 0.0
2015-Jan-28 18:33N 51°15' E 004°24'0 0.0
2015-Jan-28 17:33N 51°15' E 004°24'0 0.0
2015-Jan-28 16:33N 51°15' E 004°24'0 0.0
2015-Jan-28 15:33N 51°15' E 004°24'0 0.0
2015-Jan-28 14:33N 51°15' E 004°24'0 0.0
2015-Jan-28 13:33N 51°15' E 004°24'0 0.0
2015-Jan-28 12:33N 51°15' E 004°24'0 0.0
2015-Jan-28 11:33N 51°15' E 004°24'0 0.0
2015-Jan-28 10:33N 51°15' E 004°24'0 0.0
2015-Jan-28 09:33N 51°15' E 004°24'0 0.0
2015-Jan-28 08:33N 51°15' E 004°24'0 0.0
2015-Jan-28 07:33N 51°15' E 004°24'0 0.0
2015-Jan-28 06:33N 51°15' E 004°24'0 0.0
2015-Jan-28 05:33N 51°15' E 004°24'0 0.0
2015-Jan-28 04:33N 51°15' E 004°24'0 0.0
2015-Jan-28 03:33N 51°15' E 004°24'0 0.0
2015-Jan-28 02:33N 51°15' E 004°24'0 0.0
2015-Jan-28 01:33N 51°15' E 004°24'0 0.0
2015-Jan-28 00:33N 51°15' E 004°24'0 0.0
2015-Jan-27 23:33N 51°15' E 004°24'0 0.0
2015-Jan-27 22:32N 51°15' E 004°24'0 0.0
2015-Jan-27 21:32N 51°15' E 004°24'0 0.0
2015-Jan-27 20:32N 51°15' E 004°24'0 0.0
2015-Jan-27 19:32N 51°15' E 004°24'0 0.0
2015-Jan-27 18:32N 51°15' E 004°24'0 0.0
2015-Jan-27 17:32N 51°15' E 004°24'0 0.0
2015-Jan-27 16:32N 51°15' E 004°24'0 0.0
2015-Jan-27 15:32N 51°15' E 004°24'0 0.0
2015-Jan-27 14:32N 51°15' E 004°24'0 0.0
2015-Jan-27 13:32N 51°15' E 004°24'0 0.0
2015-Jan-27 12:32N 51°15' E 004°24'0 0.0
2015-Jan-27 11:32N 51°15' E 004°24'0 0.0
2015-Jan-27 10:32N 51°15' E 004°24'0 0.0
2015-Jan-27 09:32N 51°15' E 004°24'0 0.0
2015-Jan-27 08:32N 51°15' E 004°24'0 0.0
2015-Jan-27 07:32N 51°15' E 004°24'0 0.0
2015-Jan-27 06:32N 51°15' E 004°24'0 0.0
2015-Jan-27 05:33N 51°15' E 004°24'2 2.5
2015-Jan-27 04:33N 51°16' E 004°21'1 0.8
2015-Jan-27 03:33N 51°17' E 004°20'7 7.2
2015-Jan-27 02:33N 51°22' E 004°13'10 9.7
2015-Jan-27 01:33N 51°25' E 003°58'10 9.6
2015-Jan-27 00:34N 51°24' E 003°43'1110.5
2015-Jan-26 23:33N 51°30' E 003°28'1313.1
2015-Jan-26 22:33N 51°41' E 003°16'7 6.8
2015-Jan-26 21:33N 51°47' E 003°14'11712.6
2015-Jan-26 12:13N 53°31' E 004°45'811.9
2015-Jan-26 11:33N 53°34' E 004°57'1111.4
2015-Jan-26 10:33N 53°38' E 005°16'1111.2
2015-Jan-26 09:33N 53°42' E 005°33'1211.9
2015-Jan-26 08:34N 53°46' E 005°52'1413.1
2015-Jan-26 07:31N 53°50' E 006°14'4013.2
2015-Jan-26 04:31N 53°59' E 007°19'1212.3
2015-Jan-26 03:33N 54°02' E 007°39'1211.9
2015-Jan-26 02:33N 54°02' E 007°59'1111.3
2015-Jan-26 01:33N 54°00' E 008°18'1010.3
2015-Jan-26 00:33N 53°58' E 008°35'1211.9
2015-Jan-25 23:33N 53°50' E 008°51'1514.6
2015-Jan-25 22:33N 53°52' E 009°15'1615.7
2015-Jan-25 21:33N 53°40' E 009°31'1514.8
2015-Jan-25 20:33N 53°33' E 009°53'4 3.7
2015-Jan-25 19:32N 53°32' E 009°59'0 0.0
2015-Jan-25 18:32N 53°32' E 009°59'0 0.0
2015-Jan-25 17:29N 53°32' E 009°59'0 0.0
2015-Jan-25 16:29N 53°32' E 009°59'0 0.0
2015-Jan-25 15:29N 53°32' E 009°59'0 0.0
2015-Jan-25 14:29N 53°32' E 009°59'0 0.0
2015-Jan-25 13:32N 53°32' E 009°59'0 0.0
2015-Jan-25 12:23N 53°32' E 009°59'0 0.0
2015-Jan-25 11:32N 53°32' E 009°59'0 0.0
2015-Jan-25 10:32N 53°32' E 009°59'0 0.0
2015-Jan-25 09:32N 53°32' E 009°59'0 0.0
2015-Jan-25 08:28N 53°32' E 009°59'0 0.0
2015-Jan-25 07:10N 53°32' E 009°59'0 0.0
2015-Jan-25 06:28N 53°32' E 009°59'0 0.0
2015-Jan-25 05:19N 53°32' E 009°59'0 0.0
2015-Jan-25 04:28N 53°32' E 009°59'0 0.0
2015-Jan-25 03:16N 53°32' E 009°59'0 0.0
2015-Jan-25 02:28N 53°32' E 009°59'0 0.0
2015-Jan-25 01:28N 53°32' E 009°59'0 0.0
2015-Jan-25 00:19N 53°32' E 009°59'0 0.0
2015-Jan-24 23:22N 53°32' E 009°59'0 0.0
2015-Jan-24 22:28N 53°32' E 009°59'0 0.0
2015-Jan-24 21:33N 53°32' E 009°59'5 5.1
2015-Jan-24 20:33N 53°33' E 009°51'1110.6
2015-Jan-24 19:33N 53°37' E 009°34'8 7.9
2015-Jan-24 18:33N 53°43' E 009°27'6 6.4
2015-Jan-24 17:33N 53°49' E 009°22'9 9.4
2015-Jan-24 16:33N 53°53' E 009°07'1413.8
2015-Jan-24 15:33N 53°52' E 008°44'1413.9
2015-Jan-24 14:33N 53°59' E 008°23'1414.0
2015-Jan-24 13:34N 53°59' E 007°60'1514.8
2015-Jan-24 12:33N 53°56' E 007°35'3315.1
2015-Jan-24 10:20N 53°47' E 006°40'2015.4
2015-Jan-24 09:04N 53°42' E 006°08'815.2
2015-Jan-24 08:34N 53°39' E 005°56'1515.3
2015-Jan-24 07:33N 53°35' E 005°31'1515.2
2015-Jan-24 06:34N 53°31' E 005°06'1514.6
2015-Jan-24 05:33N 53°24' E 004°44'1313.5
2015-Jan-24 04:34N 53°12' E 004°35'1413.8
2015-Jan-24 03:33N 53°00' E 004°23'1313.5
2015-Jan-24 02:33N 52°48' E 004°13'1313.3
2015-Jan-24 01:33N 52°37' E 004°02'1312.8
2015-Jan-24 00:33N 52°25' E 003°53'1312.7
2015-Jan-23 23:33N 52°12' E 003°53'1010.2
2015-Jan-23 22:33N 52°02' E 003°55'1211.9
2015-Jan-23 21:33N 51°56' E 004°12'9 9.2
2015-Jan-23 20:34N 51°54' E 004°26'1 1.2
2015-Jan-23 19:27N 51°54' E 004°28'0 0.0
2015-Jan-23 18:33N 51°54' E 004°28'0 0.0
2015-Jan-23 17:33N 51°54' E 004°28'0 0.0
2015-Jan-23 16:33N 51°54' E 004°28'2 2.1
2015-Jan-23 15:31N 51°54' E 004°25'0 0.0
2015-Jan-23 14:31N 51°54' E 004°25'0 0.0
2015-Jan-23 13:31N 51°54' E 004°25'0 0.0
2015-Jan-23 12:31N 51°54' E 004°25'0 0.0
2015-Jan-23 11:31N 51°54' E 004°25'0 0.0
2015-Jan-23 10:31N 51°54' E 004°25'0 0.0
2015-Jan-23 09:31N 51°54' E 004°25'0 0.0
2015-Jan-23 08:31N 51°54' E 004°25'0 0.0
2015-Jan-23 07:31N 51°54' E 004°25'0 0.0
2015-Jan-23 06:31N 51°54' E 004°25'0 0.0
2015-Jan-23 05:31N 51°54' E 004°25'0 0.0
2015-Jan-23 04:31N 51°54' E 004°25'0 0.0
2015-Jan-23 03:27N 51°54' E 004°25'0 0.0
2015-Jan-23 02:30N 51°54' E 004°25'0 0.0
2015-Jan-23 01:33N 51°54' E 004°25'0 0.0
2015-Jan-23 00:33N 51°54' E 004°25'0 0.0
2015-Jan-22 23:33N 51°54' E 004°25'0 0.0
2015-Jan-22 22:33N 51°54' E 004°25'0 0.0
2015-Jan-22 21:33N 51°54' E 004°25'0 0.0
2015-Jan-22 20:33N 51°54' E 004°25'0 0.0
2015-Jan-22 19:33N 51°54' E 004°25'0 0.0
2015-Jan-22 18:33N 51°54' E 004°25'0 0.0
2015-Jan-22 17:33N 51°54' E 004°25'0 0.0
2015-Jan-22 16:33N 51°54' E 004°25'0 0.0
2015-Jan-22 15:33N 51°54' E 004°25'0 0.0
2015-Jan-22 14:33N 51°54' E 004°25'0 0.0
2015-Jan-22 13:33N 51°54' E 004°25'0 0.0
2015-Jan-22 12:33N 51°54' E 004°25'0 0.0
2015-Jan-22 11:33N 51°54' E 004°25'0 0.0
2015-Jan-22 10:33N 51°54' E 004°25'0 0.0
2015-Jan-22 09:33N 51°54' E 004°25'0 0.0
2015-Jan-22 08:33N 51°54' E 004°25'0 0.0
2015-Jan-22 07:33N 51°54' E 004°25'0 0.0
2015-Jan-22 06:33N 51°54' E 004°25'0 0.0
2015-Jan-22 05:33N 51°54' E 004°25'0 0.0
2015-Jan-22 04:33N 51°54' E 004°25'0 0.0
2015-Jan-22 03:33N 51°54' E 004°25'0 0.0
2015-Jan-22 02:33N 51°54' E 004°25'0 0.0
2015-Jan-22 01:33N 51°54' E 004°25'0 0.0
2015-Jan-22 00:32N 51°54' E 004°25'0 0.0
2015-Jan-21 23:32N 51°54' E 004°25'0 0.0
2015-Jan-21 22:50N 51°54' E 004°25'0 0.0
2015-Jan-21 22:41N 51°54' E 004°25'0 0.0
2015-Jan-21 22:32N 51°54' E 004°25'0 0.0
2015-Jan-21 21:32N 51°54' E 004°25'0 0.0
2015-Jan-21 20:32N 51°54' E 004°25'0 0.0
2015-Jan-21 19:29N 51°54' E 004°25'0 0.0
2015-Jan-21 18:32N 51°54' E 004°25'0 0.0
2015-Jan-21 17:32N 51°54' E 004°25'0 0.0
2015-Jan-21 16:32N 51°54' E 004°25'0 0.0
2015-Jan-21 15:33N 51°54' E 004°25'0 0.0
2015-Jan-21 14:32N 51°54' E 004°25'0 0.0
2015-Jan-21 13:32N 51°54' E 004°25'2 1.7
2015-Jan-21 12:34N 51°54' E 004°22'9 9.4
2015-Jan-21 11:34N 51°58' E 004°09'1010.3
2015-Jan-21 10:34N 52°00' E 003°52'1010.0
2015-Jan-21 09:33N 52°04' E 003°37'7011.6
2015-Jan-21 03:32N 52°45' E 002°04'1010.0
2015-Jan-21 02:34N 52°49' E 001°49'9 9.2
2015-Jan-21 01:33N 52°55' E 001°38'10 9.6
2015-Jan-21 00:34N 53°02' E 001°27'1010.4
2015-Jan-20 23:33N 53°10' E 001°16'2511.0
2015-Jan-20 21:19N 53°25' E 000°43'911.6
2015-Jan-20 20:32N 53°30' E 000°30'1110.9
2015-Jan-20 19:33N 53°33' E 000°13'1211.7
2015-Jan-20 18:33N 53°37' W 000°06'1010.0
2015-Jan-20 17:33N 53°44' W 000°17'1 0.5
2015-Jan-20 16:32N 53°45' W 000°17'0 0.0
2015-Jan-20 15:32N 53°45' W 000°17'0 0.0
2015-Jan-20 14:32N 53°45' W 000°17'0 0.0
2015-Jan-20 13:32N 53°45' W 000°17'0 0.0
2015-Jan-20 12:32N 53°45' W 000°17'0 0.0
2015-Jan-20 11:32N 53°45' W 000°17'  
Track history (hours):
 
Tides and Currents Weather Stations Pressure Air Temp Water Temp Dewpoint Dewpoint Depression Visibility Wind Speed Wind Dir Waves Ship Positions

Lifter

Last reported at 2015-Jan-30 10:33 UTC. Time now 2015-Jan-30 20:03 UTC.
Position N 50°27' W 000°25'.

Length 118 m; draft 7.2 m.

Type: Ship. MMSI: 305175000.

Date/timePositionNaut miles runAvg speedWind from/ knotsBaromVisibWave heightAir tempDewpointWater temp
2015-Jan-30 10:33N 50°27' W 000°25'1411.2
2015-Jan-30 09:19N 50°31' W 000°04'810.2
2015-Jan-30 08:31N 50°33' E 000°09'9 9.3
2015-Jan-30 07:34N 50°36' E 000°22'9 9.0
2015-Jan-30 06:34N 50°39' E 000°35'10 9.6
2015-Jan-30 05:34N 50°45' E 000°48'1110.6
2015-Jan-30 04:33N 50°51' E 001°01'1212.1
2015-Jan-30 03:34N 50°59' E 001°16'1313.1
2015-Jan-30 02:33N 51°07' E 001°32'1312.6
2015-Jan-30 01:33N 51°15' E 001°47'1211.7
2015-Jan-30 00:34N 51°25' E 001°59'1110.5
2015-Jan-29 23:33N 51°21' E 002°15'10 9.8
2015-Jan-29 22:32N 51°23' E 002°31'9 9.4
2015-Jan-29 21:34N 51°22' E 002°45'9 9.3
2015-Jan-29 20:33N 51°24' E 003°00'1110.4
2015-Jan-29 19:29N 51°25' E 003°18'910.3
2015-Jan-29 18:34N 51°26' E 003°33'7 6.9
2015-Jan-29 17:33N 51°23' E 003°43'9 9.2
2015-Jan-29 16:33N 51°25' E 003°58'9 8.7
2015-Jan-29 15:34N 51°24' E 004°11'9 9.1
2015-Jan-29 14:34N 51°17' E 004°20'0 0.0
2015-Jan-29 13:34N 51°17' E 004°20'3 3.1
2015-Jan-29 12:33N 51°15' E 004°24'0 0.0
2015-Jan-29 11:33N 51°15' E 004°24'0 0.0
2015-Jan-29 10:33N 51°15' E 004°24'0 0.0
2015-Jan-29 09:33N 51°15' E 004°24'0 0.0
2015-Jan-29 08:33N 51°15' E 004°24'0 0.0
2015-Jan-29 07:33N 51°15' E 004°24'0 0.0
2015-Jan-29 06:33N 51°15' E 004°24'0 0.0
2015-Jan-29 05:33N 51°15' E 004°24'0 0.0
2015-Jan-29 04:33N 51°15' E 004°24'0 0.0
2015-Jan-29 03:33N 51°15' E 004°24'0 0.0
2015-Jan-29 02:33N 51°15' E 004°24'0 0.0
2015-Jan-29 01:33N 51°15' E 004°24'0 0.0
2015-Jan-29 00:33N 51°15' E 004°24'0 0.0
2015-Jan-28 23:33N 51°15' E 004°24'0 0.0
2015-Jan-28 22:33N 51°15' E 004°24'0 0.0
2015-Jan-28 21:33N 51°15' E 004°24'0 0.0
2015-Jan-28 20:33N 51°15' E 004°24'0 0.0
2015-Jan-28 19:33N 51°15' E 004°24'0 0.0
2015-Jan-28 18:33N 51°15' E 004°24'0 0.0
2015-Jan-28 17:33N 51°15' E 004°24'0 0.0
2015-Jan-28 16:33N 51°15' E 004°24'0 0.0
2015-Jan-28 15:33N 51°15' E 004°24'0 0.0
2015-Jan-28 14:33N 51°15' E 004°24'0 0.0
2015-Jan-28 13:33N 51°15' E 004°24'0 0.0
2015-Jan-28 12:33N 51°15' E 004°24'0 0.0
2015-Jan-28 11:33N 51°15' E 004°24'0 0.0
2015-Jan-28 10:33N 51°15' E 004°24'0 0.0
2015-Jan-28 09:33N 51°15' E 004°24'0 0.0
2015-Jan-28 08:33N 51°15' E 004°24'0 0.0
2015-Jan-28 07:33N 51°15' E 004°24'0 0.0
2015-Jan-28 06:33N 51°15' E 004°24'0 0.0
2015-Jan-28 05:33N 51°15' E 004°24'0 0.0
2015-Jan-28 04:33N 51°15' E 004°24'0 0.0
2015-Jan-28 03:33N 51°15' E 004°24'0 0.0
2015-Jan-28 02:33N 51°15' E 004°24'0 0.0
2015-Jan-28 01:33N 51°15' E 004°24'0 0.0
2015-Jan-28 00:33N 51°15' E 004°24'0 0.0
2015-Jan-27 23:33N 51°15' E 004°24'0 0.0
2015-Jan-27 22:32N 51°15' E 004°24'0 0.0
2015-Jan-27 21:32N 51°15' E 004°24'0 0.0
2015-Jan-27 20:32N 51°15' E 004°24'0 0.0
2015-Jan-27 19:32N 51°15' E 004°24'0 0.0
2015-Jan-27 18:32N 51°15' E 004°24'0 0.0
2015-Jan-27 17:32N 51°15' E 004°24'0 0.0
2015-Jan-27 16:32N 51°15' E 004°24'0 0.0
2015-Jan-27 15:32N 51°15' E 004°24'0 0.0
2015-Jan-27 14:32N 51°15' E 004°24'0 0.0
2015-Jan-27 13:32N 51°15' E 004°24'0 0.0
2015-Jan-27 12:32N 51°15' E 004°24'0 0.0
2015-Jan-27 11:32N 51°15' E 004°24'0 0.0
2015-Jan-27 10:32N 51°15' E 004°24'0 0.0
2015-Jan-27 09:32N 51°15' E 004°24'0 0.0
2015-Jan-27 08:32N 51°15' E 004°24'0 0.0
2015-Jan-27 07:32N 51°15' E 004°24'0 0.0
2015-Jan-27 06:32N 51°15' E 004°24'0 0.0
2015-Jan-27 05:33N 51°15' E 004°24'2 2.5
2015-Jan-27 04:33N 51°16' E 004°21'1 0.8
2015-Jan-27 03:33N 51°17' E 004°20'7 7.2
2015-Jan-27 02:33N 51°22' E 004°13'10 9.7
2015-Jan-27 01:33N 51°25' E 003°58'10 9.6
2015-Jan-27 00:34N 51°24' E 003°43'1110.5
2015-Jan-26 23:33N 51°30' E 003°28'1313.1
2015-Jan-26 22:33N 51°41' E 003°16'7 6.8
2015-Jan-26 21:33N 51°47' E 003°14'11712.6
2015-Jan-26 12:13N 53°31' E 004°45'811.9
2015-Jan-26 11:33N 53°34' E 004°57'1111.4
2015-Jan-26 10:33N 53°38' E 005°16'1111.2
2015-Jan-26 09:33N 53°42' E 005°33'1211.9
2015-Jan-26 08:34N 53°46' E 005°52'1413.1
2015-Jan-26 07:31N 53°50' E 006°14'4013.2
2015-Jan-26 04:31N 53°59' E 007°19'1212.3
2015-Jan-26 03:33N 54°02' E 007°39'1211.9
2015-Jan-26 02:33N 54°02' E 007°59'1111.3
2015-Jan-26 01:33N 54°00' E 008°18'1010.3
2015-Jan-26 00:33N 53°58' E 008°35'1211.9
2015-Jan-25 23:33N 53°50' E 008°51'1514.6
2015-Jan-25 22:33N 53°52' E 009°15'1615.7
2015-Jan-25 21:33N 53°40' E 009°31'1514.8
2015-Jan-25 20:33N 53°33' E 009°53'4 3.7
2015-Jan-25 19:32N 53°32' E 009°59'0 0.0
2015-Jan-25 18:32N 53°32' E 009°59'0 0.0
2015-Jan-25 17:29N 53°32' E 009°59'0 0.0
2015-Jan-25 16:29N 53°32' E 009°59'0 0.0
2015-Jan-25 15:29N 53°32' E 009°59'0 0.0
2015-Jan-25 14:29N 53°32' E 009°59'0 0.0
2015-Jan-25 13:32N 53°32' E 009°59'0 0.0
2015-Jan-25 12:23N 53°32' E 009°59'0 0.0
2015-Jan-25 11:32N 53°32' E 009°59'0 0.0
2015-Jan-25 10:32N 53°32' E 009°59'0 0.0
2015-Jan-25 09:32N 53°32' E 009°59'0 0.0
2015-Jan-25 08:28N 53°32' E 009°59'0 0.0
2015-Jan-25 07:10N 53°32' E 009°59'0 0.0
2015-Jan-25 06:28N 53°32' E 009°59'0 0.0
2015-Jan-25 05:19N 53°32' E 009°59'0 0.0
2015-Jan-25 04:28N 53°32' E 009°59'0 0.0
2015-Jan-25 03:16N 53°32' E 009°59'0 0.0
2015-Jan-25 02:28N 53°32' E 009°59'0 0.0
2015-Jan-25 01:28N 53°32' E 009°59'0 0.0
2015-Jan-25 00:19N 53°32' E 009°59'0 0.0
2015-Jan-24 23:22N 53°32' E 009°59'0 0.0
2015-Jan-24 22:28N 53°32' E 009°59'0 0.0
2015-Jan-24 21:33N 53°32' E 009°59'5 5.1
2015-Jan-24 20:33N 53°33' E 009°51'1110.6
2015-Jan-24 19:33N 53°37' E 009°34'8 7.9
2015-Jan-24 18:33N 53°43' E 009°27'6 6.4
2015-Jan-24 17:33N 53°49' E 009°22'9 9.4
2015-Jan-24 16:33N 53°53' E 009°07'1413.8
2015-Jan-24 15:33N 53°52' E 008°44'1413.9
2015-Jan-24 14:33N 53°59' E 008°23'1414.0
2015-Jan-24 13:34N 53°59' E 007°60'1514.8
2015-Jan-24 12:33N 53°56' E 007°35'3315.1
2015-Jan-24 10:20N 53°47' E 006°40'2015.4
2015-Jan-24 09:04N 53°42' E 006°08'815.2
2015-Jan-24 08:34N 53°39' E 005°56'1515.3
2015-Jan-24 07:33N 53°35' E 005°31'1515.2
2015-Jan-24 06:34N 53°31' E 005°06'1514.6
2015-Jan-24 05:33N 53°24' E 004°44'1313.5
2015-Jan-24 04:34N 53°12' E 004°35'1413.8
2015-Jan-24 03:33N 53°00' E 004°23'1313.5
2015-Jan-24 02:33N 52°48' E 004°13'1313.3
2015-Jan-24 01:33N 52°37' E 004°02'1312.8
2015-Jan-24 00:33N 52°25' E 003°53'1312.7
2015-Jan-23 23:33N 52°12' E 003°53'1010.2
2015-Jan-23 22:33N 52°02' E 003°55'1211.9
2015-Jan-23 21:33N 51°56' E 004°12'9 9.2
2015-Jan-23 20:34N 51°54' E 004°26'1 1.2
2015-Jan-23 19:27N 51°54' E 004°28'0 0.0
2015-Jan-23 18:33N 51°54' E 004°28'0 0.0
2015-Jan-23 17:33N 51°54' E 004°28'0 0.0
2015-Jan-23 16:33N 51°54' E 004°28'2 2.1
2015-Jan-23 15:31N 51°54' E 004°25'0 0.0
2015-Jan-23 14:31N 51°54' E 004°25'0 0.0
2015-Jan-23 13:31N 51°54' E 004°25'0 0.0
2015-Jan-23 12:31N 51°54' E 004°25'0 0.0
2015-Jan-23 11:31N 51°54' E 004°25'0 0.0
2015-Jan-23 10:31N 51°54' E 004°25'0 0.0
2015-Jan-23 09:31N 51°54' E 004°25'0 0.0
2015-Jan-23 08:31N 51°54' E 004°25'0 0.0
2015-Jan-23 07:31N 51°54' E 004°25'0 0.0
2015-Jan-23 06:31N 51°54' E 004°25'0 0.0
2015-Jan-23 05:31N 51°54' E 004°25'0 0.0
2015-Jan-23 04:31N 51°54' E 004°25'0 0.0
2015-Jan-23 03:27N 51°54' E 004°25'0 0.0
2015-Jan-23 02:30N 51°54' E 004°25'0 0.0
2015-Jan-23 01:33N 51°54' E 004°25'0 0.0
2015-Jan-23 00:33N 51°54' E 004°25'0 0.0
2015-Jan-22 23:33N 51°54' E 004°25'0 0.0
2015-Jan-22 22:33N 51°54' E 004°25'0 0.0
2015-Jan-22 21:33N 51°54' E 004°25'0 0.0
2015-Jan-22 20:33N 51°54' E 004°25'0 0.0
2015-Jan-22 19:33N 51°54' E 004°25'0 0.0
2015-Jan-22 18:33N 51°54' E 004°25'0 0.0
2015-Jan-22 17:33N 51°54' E 004°25'0 0.0
2015-Jan-22 16:33N 51°54' E 004°25'0 0.0
2015-Jan-22 15:33N 51°54' E 004°25'0 0.0
2015-Jan-22 14:33N 51°54' E 004°25'0 0.0
2015-Jan-22 13:33N 51°54' E 004°25'0 0.0
2015-Jan-22 12:33N 51°54' E 004°25'0 0.0
2015-Jan-22 11:33N 51°54' E 004°25'0 0.0
2015-Jan-22 10:33N 51°54' E 004°25'0 0.0
2015-Jan-22 09:33N 51°54' E 004°25'0 0.0
2015-Jan-22 08:33N 51°54' E 004°25'0 0.0
2015-Jan-22 07:33N 51°54' E 004°25'0 0.0
2015-Jan-22 06:33N 51°54' E 004°25'0 0.0
2015-Jan-22 05:33N 51°54' E 004°25'0 0.0
2015-Jan-22 04:33N 51°54' E 004°25'0 0.0
2015-Jan-22 03:33N 51°54' E 004°25'0 0.0
2015-Jan-22 02:33N 51°54' E 004°25'0 0.0
2015-Jan-22 01:33N 51°54' E 004°25'0 0.0
2015-Jan-22 00:32N 51°54' E 004°25'0 0.0
2015-Jan-21 23:32N 51°54' E 004°25'0 0.0
2015-Jan-21 22:50N 51°54' E 004°25'0 0.0
2015-Jan-21 22:41N 51°54' E 004°25'0 0.0
2015-Jan-21 22:32N 51°54' E 004°25'0 0.0
2015-Jan-21 21:32N 51°54' E 004°25'0 0.0
2015-Jan-21 20:32N 51°54' E 004°25'0 0.0
2015-Jan-21 19:29N 51°54' E 004°25'0 0.0
2015-Jan-21 18:32N 51°54' E 004°25'0 0.0
2015-Jan-21 17:32N 51°54' E 004°25'0 0.0
2015-Jan-21 16:32N 51°54' E 004°25'0 0.0
2015-Jan-21 15:33N 51°54' E 004°25'0 0.0
2015-Jan-21 14:32N 51°54' E 004°25'0 0.0
2015-Jan-21 13:32N 51°54' E 004°25'2 1.7
2015-Jan-21 12:34N 51°54' E 004°22'9 9.4
2015-Jan-21 11:34N 51°58' E 004°09'1010.3
2015-Jan-21 10:34N 52°00' E 003°52'1010.0
2015-Jan-21 09:33N 52°04' E 003°37'7011.6
2015-Jan-21 03:32N 52°45' E 002°04'1010.0
2015-Jan-21 02:34N 52°49' E 001°49'9 9.2
2015-Jan-21 01:33N 52°55' E 001°38'10 9.6
2015-Jan-21 00:34N 53°02' E 001°27'1010.4
2015-Jan-20 23:33N 53°10' E 001°16'2511.0
2015-Jan-20 21:19N 53°25' E 000°43'911.6
2015-Jan-20 20:32N 53°30' E 000°30'1110.9
2015-Jan-20 19:33N 53°33' E 000°13'1211.7
2015-Jan-20 18:33N 53°37' W 000°06'1010.0
2015-Jan-20 17:33N 53°44' W 000°17'1 0.5
2015-Jan-20 16:32N 53°45' W 000°17'0 0.0
2015-Jan-20 15:32N 53°45' W 000°17'0 0.0
2015-Jan-20 14:32N 53°45' W 000°17'0 0.0
2015-Jan-20 13:32N 53°45' W 000°17'0 0.0
2015-Jan-20 12:32N 53°45' W 000°17'0 0.0
2015-Jan-20 11:32N 53°45' W 000°17'  

Dump ship's entire track history